sensor_id;sensor_type;location;lat;lon;timestamp;pressure;altitude;pressure_sealevel;temperature
74750;BMP280;63269;53.330;-6.288;2023-09-07T00:00:22;101640.63;;;25.19
74750;BMP280;63269;53.330;-6.288;2023-09-07T00:02:48;101640.63;;;25.19
74750;BMP280;63269;53.330;-6.288;2023-09-07T00:05:13;101633.72;;;25.18
74750;BMP280;63269;53.330;-6.288;2023-09-07T00:07:39;101630.31;;;25.17
74750;BMP280;63269;53.330;-6.288;2023-09-07T00:10:06;101634.19;;;25.16
74750;BMP280;63269;53.330;-6.288;2023-09-07T00:12:33;101622.72;;;25.16
74750;BMP280;63269;53.330;-6.288;2023-09-07T00:14:58;101616.56;;;25.15
74750;BMP280;63269;53.330;-6.288;2023-09-07T00:17:25;101601.66;;;25.14
74750;BMP280;63269;53.330;-6.288;2023-09-07T00:19:50;101602.41;;;25.15
74750;BMP280;63269;53.330;-6.288;2023-09-07T00:22:18;101603.59;;;25.14
74750;BMP280;63269;53.330;-6.288;2023-09-07T00:24:44;101603.59;;;25.14
74750;BMP280;63269;53.330;-6.288;2023-09-07T00:27:10;101590.63;;;25.12
74750;BMP280;63269;53.330;-6.288;2023-09-07T00:29:37;101589.88;;;25.12
74750;BMP280;63269;53.330;-6.288;2023-09-07T00:32:04;101589.88;;;25.12
74750;BMP280;63269;53.330;-6.288;2023-09-07T00:34:29;101581.50;;;25.10
74750;BMP280;63269;53.330;-6.288;2023-09-07T00:36:56;101574.66;;;25.09
74750;BMP280;63269;53.330;-6.288;2023-09-07T00:39:22;101576.59;;;25.08
74750;BMP280;63269;53.330;-6.288;2023-09-07T00:41:48;101571.22;;;25.08
74750;BMP280;63269;53.330;-6.288;2023-09-07T00:44:13;101575.09;;;25.07
74750;BMP280;63269;53.330;-6.288;2023-09-07T00:46:39;101583.16;;;25.07
74750;BMP280;63269;53.330;-6.288;2023-09-07T00:49:05;101591.22;;;25.07
74750;BMP280;63269;53.330;-6.288;2023-09-07T00:51:31;101590.91;;;25.05
74750;BMP280;63269;53.330;-6.288;2023-09-07T00:53:58;101586.31;;;25.06
74750;BMP280;63269;53.330;-6.288;2023-09-07T00:56:25;101586.31;;;25.06
74750;BMP280;63269;53.330;-6.288;2023-09-07T00:58:53;101585.97;;;25.04
74750;BMP280;63269;53.330;-6.288;2023-09-07T01:01:25;101585.97;;;25.04
74750;BMP280;63269;53.330;-6.288;2023-09-07T01:03:51;101590.59;;;25.03
74750;BMP280;63269;53.330;-6.288;2023-09-07T01:06:25;101584.50;;;25.03
74750;BMP280;63269;53.330;-6.288;2023-09-07T01:08:55;101583.75;;;25.02
74750;BMP280;63269;53.330;-6.288;2023-09-07T01:11:24;101584.91;;;25.01
74750;BMP280;63269;53.330;-6.288;2023-09-07T01:13:50;101596.44;;;25.02
74750;BMP280;63269;53.330;-6.288;2023-09-07T01:16:20;101603.72;;;25.01
74750;BMP280;63269;53.330;-6.288;2023-09-07T01:18:46;101597.28;;;24.99
74750;BMP280;63269;53.330;-6.288;2023-09-07T01:21:13;101596.84;;;25.00
74750;BMP280;63269;53.330;-6.288;2023-09-07T01:23:43;101601.47;;;25.00
74750;BMP280;63269;53.330;-6.288;2023-09-07T01:26:10;101594.91;;;25.01
74750;BMP280;63269;53.330;-6.288;2023-09-07T01:28:36;101596.56;;;24.98
74750;BMP280;63269;53.330;-6.288;2023-09-07T01:31:05;101597.59;;;25.01
74750;BMP280;63269;53.330;-6.288;2023-09-07T01:33:31;101591.19;;;24.98
74750;BMP280;63269;53.330;-6.288;2023-09-07T01:35:57;101587.75;;;24.98
74750;BMP280;63269;53.330;-6.288;2023-09-07T01:38:23;101589.66;;;24.97
74750;BMP280;63269;53.330;-6.288;2023-09-07T01:40:49;101591.19;;;24.98
74750;BMP280;63269;53.330;-6.288;2023-09-07T01:43:14;101591.19;;;24.98
74750;BMP280;63269;53.330;-6.288;2023-09-07T01:45:40;101589.66;;;24.97
74750;BMP280;63269;53.330;-6.288;2023-09-07T01:48:11;101587.44;;;24.95
74750;BMP280;63269;53.330;-6.288;2023-09-07T01:50:37;101585.50;;;24.96
74750;BMP280;63269;53.330;-6.288;2023-09-07T01:53:03;101581.63;;;24.97
74750;BMP280;63269;53.330;-6.288;2023-09-07T01:55:30;101581.63;;;24.97
74750;BMP280;63269;53.330;-6.288;2023-09-07T01:57:56;101579.41;;;24.95
74750;BMP280;63269;53.330;-6.288;2023-09-07T02:00:22;101579.84;;;24.94
74750;BMP280;63269;53.330;-6.288;2023-09-07T02:02:48;101571.34;;;24.95
74750;BMP280;63269;53.330;-6.288;2023-09-07T02:05:13;101571.34;;;24.95
74750;BMP280;63269;53.330;-6.288;2023-09-07T02:07:39;101567.91;;;24.95
74750;BMP280;63269;53.330;-6.288;2023-09-07T02:10:05;101567.91;;;24.95
74750;BMP280;63269;53.330;-6.288;2023-09-07T02:12:31;101569.88;;;24.94
74750;BMP280;63269;53.330;-6.288;2023-09-07T02:15:01;101566.84;;;24.92
74750;BMP280;63269;53.330;-6.288;2023-09-07T02:17:27;101566.41;;;24.94
74750;BMP280;63269;53.330;-6.288;2023-09-07T02:19:53;101570.28;;;24.93
74750;BMP280;63269;53.330;-6.288;2023-09-07T02:22:18;101574.19;;;24.92
74750;BMP280;63269;53.330;-6.288;2023-09-07T02:24:44;101565.34;;;24.91
74750;BMP280;63269;53.330;-6.288;2023-09-07T02:27:09;101557.31;;;24.91
74750;BMP280;63269;53.330;-6.288;2023-09-07T02:29:35;101559.25;;;24.91
74750;BMP280;63269;53.330;-6.288;2023-09-07T02:32:01;101559.25;;;24.91
74750;BMP280;63269;53.330;-6.288;2023-09-07T02:34:26;101556.56;;;24.91
74750;BMP280;63269;53.330;-6.288;2023-09-07T02:36:52;101547.00;;;24.90
74750;BMP280;63269;53.330;-6.288;2023-09-07T02:39:18;101546.56;;;24.91
74750;BMP280;63269;53.330;-6.288;2023-09-07T02:41:43;101540.00;;;24.92
74750;BMP280;63269;53.330;-6.288;2023-09-07T02:44:10;101540.00;;;24.92
74750;BMP280;63269;53.330;-6.288;2023-09-07T02:46:36;101538.94;;;24.90
74750;BMP280;63269;53.330;-6.288;2023-09-07T02:49:02;101543.59;;;24.89
74750;BMP280;63269;53.330;-6.288;2023-09-07T02:51:28;101548.94;;;24.89
74750;BMP280;63269;53.330;-6.288;2023-09-07T02:53:55;101547.78;;;24.90
74750;BMP280;63269;53.330;-6.288;2023-09-07T02:56:21;101547.78;;;24.90
74750;BMP280;63269;53.330;-6.288;2023-09-07T02:58:47;101548.50;;;24.91
74750;BMP280;63269;53.330;-6.288;2023-09-07T03:01:13;101538.94;;;24.90
74750;BMP280;63269;53.330;-6.288;2023-09-07T03:03:39;101542.41;;;24.90
74750;BMP280;63269;53.330;-6.288;2023-09-07T03:06:10;101544.31;;;24.90
74750;BMP280;63269;53.330;-6.288;2023-09-07T03:08:36;101538.94;;;24.90
74750;BMP280;63269;53.330;-6.288;2023-09-07T03:11:06;101547.47;;;24.88
74750;BMP280;63269;53.330;-6.288;2023-09-07T03:13:33;101541.63;;;24.90
74750;BMP280;63269;53.330;-6.288;2023-09-07T03:15:59;101538.22;;;24.89
74750;BMP280;63269;53.330;-6.288;2023-09-07T03:18:25;101546.72;;;24.88
74750;BMP280;63269;53.330;-6.288;2023-09-07T03:20:53;101548.66;;;24.87
74750;BMP280;63269;53.330;-6.288;2023-09-07T03:23:19;101545.97;;;24.87
74750;BMP280;63269;53.330;-6.288;2023-09-07T03:25:45;101545.97;;;24.87
74750;BMP280;63269;53.330;-6.288;2023-09-07T03:28:11;101545.22;;;24.87
74750;BMP280;63269;53.330;-6.288;2023-09-07T03:30:36;101536.44;;;24.86
74750;BMP280;63269;53.330;-6.288;2023-09-07T03:33:02;101544.47;;;24.86
74750;BMP280;63269;53.330;-6.288;2023-09-07T03:35:31;101547.16;;;24.86
74750;BMP280;63269;53.330;-6.288;2023-09-07T03:37:57;101542.97;;;24.85
74750;BMP280;63269;53.330;-6.288;2023-09-07T03:40:23;101539.56;;;24.85
74750;BMP280;63269;53.330;-6.288;2023-09-07T03:42:49;101534.22;;;24.85
74750;BMP280;63269;53.330;-6.288;2023-09-07T03:45:15;101534.91;;;24.85
74750;BMP280;63269;53.330;-6.288;2023-09-07T03:51:06;101532.97;;;24.86
74750;BMP280;63269;53.330;-6.288;2023-09-07T03:53:32;101530.00;;;24.84
74750;BMP280;63269;53.330;-6.288;2023-09-07T03:55:57;101530.00;;;24.84
74750;BMP280;63269;53.330;-6.288;2023-09-07T03:58:23;101531.19;;;24.83
74750;BMP280;63269;53.330;-6.288;2023-09-07T04:00:49;101530.00;;;24.84
74750;BMP280;63269;53.330;-6.288;2023-09-07T04:03:15;101524.66;;;24.84
74750;BMP280;63269;53.330;-6.288;2023-09-07T04:05:40;101527.31;;;24.84
74750;BMP280;63269;53.330;-6.288;2023-09-07T04:08:06;101523.91;;;24.83
74750;BMP280;63269;53.330;-6.288;2023-09-07T04:10:33;101524.66;;;24.84
74750;BMP280;63269;53.330;-6.288;2023-09-07T04:12:58;101517.75;;;24.83
74750;BMP280;63269;53.330;-6.288;2023-09-07T04:15:24;101520.44;;;24.83
74750;BMP280;63269;53.330;-6.288;2023-09-07T04:17:51;101513.91;;;24.84
74750;BMP280;63269;53.330;-6.288;2023-09-07T04:20:17;101501.22;;;24.84
74750;BMP280;63269;53.330;-6.288;2023-09-07T04:22:43;101497.06;;;24.83
74750;BMP280;63269;53.330;-6.288;2023-09-07T04:25:08;101497.06;;;24.83
74750;BMP280;63269;53.330;-6.288;2023-09-07T04:27:34;101488.25;;;24.83
74750;BMP280;63269;53.330;-6.288;2023-09-07T04:30:00;101490.19;;;24.82
74750;BMP280;63269;53.330;-6.288;2023-09-07T04:32:26;101494.81;;;24.82
74750;BMP280;63269;53.330;-6.288;2023-09-07T04:34:57;101503.91;;;24.84
74750;BMP280;63269;53.330;-6.288;2023-09-07T04:37:25;101499.75;;;24.83
74750;BMP280;63269;53.330;-6.288;2023-09-07T04:39:51;101508.97;;;24.82
74750;BMP280;63269;53.330;-6.288;2023-09-07T04:42:20;101511.22;;;24.84
74750;BMP280;63269;53.330;-6.288;2023-09-07T04:44:47;101507.03;;;24.83
74750;BMP280;63269;53.330;-6.288;2023-09-07T04:47:13;101513.59;;;24.82
74750;BMP280;63269;53.330;-6.288;2023-09-07T04:49:40;101509.72;;;24.83
74750;BMP280;63269;53.330;-6.288;2023-09-07T04:52:06;101506.28;;;24.82
74750;BMP280;63269;53.330;-6.288;2023-09-07T04:54:32;101506.28;;;24.82
74750;BMP280;63269;53.330;-6.288;2023-09-07T04:56:58;101508.97;;;24.82
74750;BMP280;63269;53.330;-6.288;2023-09-07T04:59:23;101508.22;;;24.82
74750;BMP280;63269;53.330;-6.288;2023-09-07T05:01:49;101496.03;;;24.81
74750;BMP280;63269;53.330;-6.288;2023-09-07T05:04:14;101504.81;;;24.81
74750;BMP280;63269;53.330;-6.288;2023-09-07T05:06:40;101515.97;;;24.80
74750;BMP280;63269;53.330;-6.288;2023-09-07T05:09:07;101511.34;;;24.80
74750;BMP280;63269;53.330;-6.288;2023-09-07T05:11:33;101519.41;;;24.80
74750;BMP280;63269;53.330;-6.288;2023-09-07T05:14:02;101507.94;;;24.80
74750;BMP280;63269;53.330;-6.288;2023-09-07T05:16:28;101513.59;;;24.82
74750;BMP280;63269;53.330;-6.288;2023-09-07T05:18:53;101513.59;;;24.82
74750;BMP280;63269;53.330;-6.288;2023-09-07T05:21:19;101507.19;;;24.79
74750;BMP280;63269;53.330;-6.288;2023-09-07T05:23:46;101513.28;;;24.80
74750;BMP280;63269;53.330;-6.288;2023-09-07T05:26:12;101515.97;;;24.80
74750;BMP280;63269;53.330;-6.288;2023-09-07T05:28:40;101515.97;;;24.80
74750;BMP280;63269;53.330;-6.288;2023-09-07T05:31:07;101513.28;;;24.80
74750;BMP280;63269;53.330;-6.288;2023-09-07T05:33:32;101511.03;;;24.78
74750;BMP280;63269;53.330;-6.288;2023-09-07T05:35:59;101511.03;;;24.78
74750;BMP280;63269;53.330;-6.288;2023-09-07T05:38:26;101506.41;;;24.79
74750;BMP280;63269;53.330;-6.288;2023-09-07T05:40:52;101500.31;;;24.78
74750;BMP280;63269;53.330;-6.288;2023-09-07T05:43:20;101500.78;;;24.77
74750;BMP280;63269;53.330;-6.288;2023-09-07T05:45:46;101500.78;;;24.77
74750;BMP280;63269;53.330;-6.288;2023-09-07T05:48:13;101496.59;;;24.75
74750;BMP280;63269;53.330;-6.288;2023-09-07T05:50:40;101501.22;;;24.75
74750;BMP280;63269;53.330;-6.288;2023-09-07T05:53:06;101495.06;;;24.74
74750;BMP280;63269;53.330;-6.288;2023-09-07T05:55:32;101502.41;;;24.74
74750;BMP280;63269;53.330;-6.288;2023-09-07T05:57:58;101502.41;;;24.74
74750;BMP280;63269;53.330;-6.288;2023-09-07T06:00:23;101494.06;;;24.72
74750;BMP280;63269;53.330;-6.288;2023-09-07T06:02:49;101504.78;;;24.72
74750;BMP280;63269;53.330;-6.288;2023-09-07T06:05:15;101502.09;;;24.72
74750;BMP280;63269;53.330;-6.288;2023-09-07T06:07:41;101508.66;;;24.71
74750;BMP280;63269;53.330;-6.288;2023-09-07T06:10:07;101518.19;;;24.72
74750;BMP280;63269;53.330;-6.288;2023-09-07T06:12:33;101518.19;;;24.72
74750;BMP280;63269;53.330;-6.288;2023-09-07T06:15:00;101519.38;;;24.71
74750;BMP280;63269;53.330;-6.288;2023-09-07T06:17:27;101515.22;;;24.70
74750;BMP280;63269;53.330;-6.288;2023-09-07T06:19:53;101522.06;;;24.71
74750;BMP280;63269;53.330;-6.288;2023-09-07T06:22:19;101517.91;;;24.70
74750;BMP280;63269;53.330;-6.288;2023-09-07T06:24:45;101524.44;;;24.69
74750;BMP280;63269;53.330;-6.288;2023-09-07T06:27:10;101514.47;;;24.69
74750;BMP280;63269;53.330;-6.288;2023-09-07T06:29:36;101524.44;;;24.69
74750;BMP280;63269;53.330;-6.288;2023-09-07T06:32:02;101529.06;;;24.68
74750;BMP280;63269;53.330;-6.288;2023-09-07T06:34:28;101532.47;;;24.69
74750;BMP280;63269;53.330;-6.288;2023-09-07T06:36:53;101531.00;;;24.68
74750;BMP280;63269;53.330;-6.288;2023-09-07T06:39:19;101531.00;;;24.68
74750;BMP280;63269;53.330;-6.288;2023-09-07T06:41:46;101531.00;;;24.68
74750;BMP280;63269;53.330;-6.288;2023-09-07T06:44:12;101531.00;;;24.68
74750;BMP280;63269;53.330;-6.288;2023-09-07T06:46:38;101534.88;;;24.67
74750;BMP280;63269;53.330;-6.288;2023-09-07T06:49:03;101533.69;;;24.68
74750;BMP280;63269;53.330;-6.288;2023-09-07T06:51:30;101534.88;;;24.67
74750;BMP280;63269;53.330;-6.288;2023-09-07T06:53:56;101536.38;;;24.68
74750;BMP280;63269;53.330;-6.288;2023-09-07T06:56:23;101534.16;;;24.66
74750;BMP280;63269;53.330;-6.288;2023-09-07T06:58:49;101541.41;;;24.66
74750;BMP280;63269;53.330;-6.288;2023-09-07T07:01:15;101541.41;;;24.66
74750;BMP280;63269;53.330;-6.288;2023-09-07T07:03:41;101549.91;;;24.64
74750;BMP280;63269;53.330;-6.288;2023-09-07T07:06:07;101545.31;;;24.65
74750;BMP280;63269;53.330;-6.288;2023-09-07T07:08:33;101551.41;;;24.65
74750;BMP280;63269;53.330;-6.288;2023-09-07T07:10:59;101550.66;;;24.65
74750;BMP280;63269;53.330;-6.288;2023-09-07T07:13:25;101556.03;;;24.65
74750;BMP280;63269;53.330;-6.288;2023-09-07T07:15:51;101548.72;;;24.65
74750;BMP280;63269;53.330;-6.288;2023-09-07T07:18:17;101549.16;;;24.64
74750;BMP280;63269;53.330;-6.288;2023-09-07T07:20:44;101549.63;;;24.62
74750;BMP280;63269;53.330;-6.288;2023-09-07T07:23:10;101559.91;;;24.64
74750;BMP280;63269;53.330;-6.288;2023-09-07T07:25:36;101559.91;;;24.64
74750;BMP280;63269;53.330;-6.288;2023-09-07T07:28:03;101551.09;;;24.63
74750;BMP280;63269;53.330;-6.288;2023-09-07T07:30:38;101551.09;;;24.63
74750;BMP280;63269;53.330;-6.288;2023-09-07T07:33:05;101547.69;;;24.63
74750;BMP280;63269;53.330;-6.288;2023-09-07T07:35:32;101543.78;;;24.64
74750;BMP280;63269;53.330;-6.288;2023-09-07T07:37:57;101543.78;;;24.64
74750;BMP280;63269;53.330;-6.288;2023-09-07T07:40:24;101533.81;;;24.64
74750;BMP280;63269;53.330;-6.288;2023-09-07T07:42:51;101538.88;;;24.62
74750;BMP280;63269;53.330;-6.288;2023-09-07T07:45:17;101538.88;;;24.62
74750;BMP280;63269;53.330;-6.288;2023-09-07T07:47:48;101538.13;;;24.62
74750;BMP280;63269;53.330;-6.288;2023-09-07T07:50:14;101542.31;;;24.63
74750;BMP280;63269;53.330;-6.288;2023-09-07T07:52:40;101543.50;;;24.62
74750;BMP280;63269;53.330;-6.288;2023-09-07T07:55:06;101543.50;;;24.62
74750;BMP280;63269;53.330;-6.288;2023-09-07T07:57:32;101542.31;;;24.63
74750;BMP280;63269;53.330;-6.288;2023-09-07T07:59:58;101544.25;;;24.62
74750;BMP280;63269;53.330;-6.288;2023-09-07T08:02:24;101545.00;;;24.63
74750;BMP280;63269;53.330;-6.288;2023-09-07T08:04:49;101544.25;;;24.62
74750;BMP280;63269;53.330;-6.288;2023-09-07T08:07:16;101536.81;;;24.66
74750;BMP280;63269;53.330;-6.288;2023-09-07T08:09:41;101536.81;;;24.66
74750;BMP280;63269;53.330;-6.288;2023-09-07T08:12:07;101526.53;;;24.65
74750;BMP280;63269;53.330;-6.288;2023-09-07T08:14:33;101536.06;;;24.66
74750;BMP280;63269;53.330;-6.288;2023-09-07T08:16:59;101538.00;;;24.65
74750;BMP280;63269;53.330;-6.288;2023-09-07T08:19:25;101541.41;;;24.66
74750;BMP280;63269;53.330;-6.288;2023-09-07T08:21:53;101536.81;;;24.66
74750;BMP280;63269;53.330;-6.288;2023-09-07T08:24:19;101534.88;;;24.67
74750;BMP280;63269;53.330;-6.288;2023-09-07T08:26:44;101528.31;;;24.68
74750;BMP280;63269;53.330;-6.288;2023-09-07T08:29:10;101540.53;;;24.69
74750;BMP280;63269;53.330;-6.288;2023-09-07T08:31:37;101541.72;;;24.68
74750;BMP280;63269;53.330;-6.288;2023-09-07T08:34:05;101531.63;;;24.72
74750;BMP280;63269;53.330;-6.288;2023-09-07T08:36:32;101531.63;;;24.72
74750;BMP280;63269;53.330;-6.288;2023-09-07T08:39:03;101528.63;;;24.70
74750;BMP280;63269;53.330;-6.288;2023-09-07T08:41:40;101526.72;;;24.70
74750;BMP280;63269;53.330;-6.288;2023-09-07T08:44:10;101534.28;;;24.72
74750;BMP280;63269;53.330;-6.288;2023-09-07T08:46:37;101528.16;;;24.71
74750;BMP280;63269;53.330;-6.288;2023-09-07T08:49:03;101532.78;;;24.71
74750;BMP280;63269;53.330;-6.288;2023-09-07T08:51:29;101525.47;;;24.71
74750;BMP280;63269;53.330;-6.288;2023-09-07T08:53:55;101532.34;;;24.72
74750;BMP280;63269;53.330;-6.288;2023-09-07T08:56:22;101532.34;;;24.72
74750;BMP280;63269;53.330;-6.288;2023-09-07T08:58:48;101524.75;;;24.71
74750;BMP280;63269;53.330;-6.288;2023-09-07T09:01:20;101528.16;;;24.71
74750;BMP280;63269;53.330;-6.288;2023-09-07T09:03:50;101528.16;;;24.71
74750;BMP280;63269;53.330;-6.288;2023-09-07T09:06:20;101532.78;;;24.71
74750;BMP280;63269;53.330;-6.288;2023-09-07T09:08:49;101527.00;;;24.72
74750;BMP280;63269;53.330;-6.288;2023-09-07T09:11:18;101528.94;;;24.72
74750;BMP280;63269;53.330;-6.288;2023-09-07T09:13:45;101510.16;;;24.72
74750;BMP280;63269;53.330;-6.288;2023-09-07T09:16:11;101522.06;;;24.71
74750;BMP280;63269;53.330;-6.288;2023-09-07T09:21:20;101513.56;;;24.72
74750;BMP280;63269;53.330;-6.288;2023-09-07T09:23:51;101508.94;;;24.73
74750;BMP280;63269;53.330;-6.288;2023-09-07T09:26:18;101522.78;;;24.71
74750;BMP280;63269;53.330;-6.288;2023-09-07T09:28:45;101517.00;;;24.73
74750;BMP280;63269;53.330;-6.288;2023-09-07T09:31:10;101508.94;;;24.73
74750;BMP280;63269;53.330;-6.288;2023-09-07T09:33:39;101513.56;;;24.72
74750;BMP280;63269;53.330;-6.288;2023-09-07T09:36:06;101504.78;;;24.72
74750;BMP280;63269;53.330;-6.288;2023-09-07T09:38:33;101506.28;;;24.73
74750;BMP280;63269;53.330;-6.288;2023-09-07T09:41:00;101507.47;;;24.72
74750;BMP280;63269;53.330;-6.288;2023-09-07T09:43:26;101515.50;;;24.72
74750;BMP280;63269;53.330;-6.288;2023-09-07T09:45:53;101512.06;;;24.71
74750;BMP280;63269;53.330;-6.288;2023-09-07T09:48:19;101512.84;;;24.72
74750;BMP280;63269;53.330;-6.288;2023-09-07T09:50:49;101510.16;;;24.72
74750;BMP280;63269;53.330;-6.288;2023-09-07T09:53:19;101512.41;;;24.73
74750;BMP280;63269;53.330;-6.288;2023-09-07T09:55:49;101512.41;;;24.73
74750;BMP280;63269;53.330;-6.288;2023-09-07T09:58:16;101510.16;;;24.72
74750;BMP280;63269;53.330;-6.288;2023-09-07T10:00:46;101515.97;;;24.70
74750;BMP280;63269;53.330;-6.288;2023-09-07T10:03:26;101507.94;;;24.70
74750;BMP280;63269;53.330;-6.288;2023-09-07T10:05:53;101510.88;;;24.72
74750;BMP280;63269;53.330;-6.288;2023-09-07T10:08:20;101518.94;;;24.72
74750;BMP280;63269;53.330;-6.288;2023-09-07T10:10:49;101518.94;;;24.72
74750;BMP280;63269;53.330;-6.288;2023-09-07T10:13:16;101508.66;;;24.71
74750;BMP280;63269;53.330;-6.288;2023-09-07T10:15:42;101505.97;;;24.71
74750;BMP280;63269;53.330;-6.288;2023-09-07T10:18:17;101508.66;;;24.71
74750;BMP280;63269;53.330;-6.288;2023-09-07T10:20:58;101506.69;;;24.71
74750;BMP280;63269;53.330;-6.288;2023-09-07T10:23:45;101506.28;;;24.73
74750;BMP280;63269;53.330;-6.288;2023-09-07T10:26:16;101506.28;;;24.73
74750;BMP280;63269;53.330;-6.288;2023-09-07T10:28:45;101506.28;;;24.73
74750;BMP280;63269;53.330;-6.288;2023-09-07T10:31:16;101506.28;;;24.73
74750;BMP280;63269;53.330;-6.288;2023-09-07T10:33:42;101502.84;;;24.72
74750;BMP280;63269;53.330;-6.288;2023-09-07T10:36:08;101499.41;;;24.72
74750;BMP280;63269;53.330;-6.288;2023-09-07T10:38:34;101498.22;;;24.73
74750;BMP280;63269;53.330;-6.288;2023-09-07T10:41:02;101499.41;;;24.72
74750;BMP280;63269;53.330;-6.288;2023-09-07T10:43:30;101504.78;;;24.72
74750;BMP280;63269;53.330;-6.288;2023-09-07T10:45:58;101498.22;;;24.73
74750;BMP280;63269;53.330;-6.288;2023-09-07T10:48:29;101505.09;;;24.74
74750;BMP280;63269;53.330;-6.288;2023-09-07T10:50:55;101502.41;;;24.74
74750;BMP280;63269;53.330;-6.288;2023-09-07T10:53:30;101501.94;;;24.75
74750;BMP280;63269;53.330;-6.288;2023-09-07T10:56:03;101494.66;;;24.76
74750;BMP280;63269;53.330;-6.288;2023-09-07T10:58:33;101494.66;;;24.76
74750;BMP280;63269;53.330;-6.288;2023-09-07T11:01:00;101492.38;;;24.74
74750;BMP280;63269;53.330;-6.288;2023-09-07T11:03:27;101485.56;;;24.73
74750;BMP280;63269;53.330;-6.288;2023-09-07T11:06:01;101488.25;;;24.73
74750;BMP280;63269;53.330;-6.288;2023-09-07T11:08:29;101485.09;;;24.75
74750;BMP280;63269;53.330;-6.288;2023-09-07T11:10:55;101485.56;;;24.73
74750;BMP280;63269;53.330;-6.288;2023-09-07T11:13:22;101485.56;;;24.73
74750;BMP280;63269;53.330;-6.288;2023-09-07T11:15:49;101486.63;;;24.76
74750;BMP280;63269;53.330;-6.288;2023-09-07T11:18:19;101486.63;;;24.76
74750;BMP280;63269;53.330;-6.288;2023-09-07T11:20:47;101483.94;;;24.76
74750;BMP280;63269;53.330;-6.288;2023-09-07T11:23:14;101483.94;;;24.76
74750;BMP280;63269;53.330;-6.288;2023-09-07T11:25:40;101478.97;;;24.74
74750;BMP280;63269;53.330;-6.288;2023-09-07T11:28:06;101481.25;;;24.76
74750;BMP280;63269;53.330;-6.288;2023-09-07T11:30:33;101478.97;;;24.74
74750;BMP280;63269;53.330;-6.288;2023-09-07T11:33:04;101470.53;;;24.76
74750;BMP280;63269;53.330;-6.288;2023-09-07T11:35:30;101461.69;;;24.75
74750;BMP280;63269;53.330;-6.288;2023-09-07T11:37:56;101464.38;;;24.75
74750;BMP280;63269;53.330;-6.288;2023-09-07T11:40:21;101453.66;;;24.75
74750;BMP280;63269;53.330;-6.288;2023-09-07T11:42:47;101458.28;;;24.75
74750;BMP280;63269;53.330;-6.288;2023-09-07T11:45:13;101461.69;;;24.75
74750;BMP280;63269;53.330;-6.288;2023-09-07T11:47:39;101470.53;;;24.76
74750;BMP280;63269;53.330;-6.288;2023-09-07T11:50:06;101467.06;;;24.75
74750;BMP280;63269;53.330;-6.288;2023-09-07T11:52:34;101475.88;;;24.76
74750;BMP280;63269;53.330;-6.288;2023-09-07T11:55:00;101475.88;;;24.76
74750;BMP280;63269;53.330;-6.288;2023-09-07T11:57:27;101469.75;;;24.75
74750;BMP280;63269;53.330;-6.288;2023-09-07T11:59:53;101468.56;;;24.77
74750;BMP280;63269;53.330;-6.288;2023-09-07T12:02:18;101478.56;;;24.76
74750;BMP280;63269;53.330;-6.288;2023-09-07T12:04:47;101483.50;;;24.78
74750;BMP280;63269;53.330;-6.288;2023-09-07T12:07:13;101477.38;;;24.77
74750;BMP280;63269;53.330;-6.288;2023-09-07T12:09:39;101478.13;;;24.78
74750;BMP280;63269;53.330;-6.288;2023-09-07T12:12:05;101481.25;;;24.76
74750;BMP280;63269;53.330;-6.288;2023-09-07T12:14:31;101477.38;;;24.77
74750;BMP280;63269;53.330;-6.288;2023-09-07T12:16:57;101477.38;;;24.77
74750;BMP280;63269;53.330;-6.288;2023-09-07T12:19:23;101477.38;;;24.77
74750;BMP280;63269;53.330;-6.288;2023-09-07T12:21:50;101464.72;;;24.78
74750;BMP280;63269;53.330;-6.288;2023-09-07T12:24:16;101462.75;;;24.78
74750;BMP280;63269;53.330;-6.288;2023-09-07T12:26:42;101459.34;;;24.78
74750;BMP280;63269;53.330;-6.288;2023-09-07T12:29:07;101453.22;;;24.77
74750;BMP280;63269;53.330;-6.288;2023-09-07T12:31:33;101451.31;;;24.78
74750;BMP280;63269;53.330;-6.288;2023-09-07T12:33:59;101450.06;;;24.79
74750;BMP280;63269;53.330;-6.288;2023-09-07T12:36:24;101445.16;;;24.77
74750;BMP280;63269;53.330;-6.288;2023-09-07T12:38:53;101444.44;;;24.77
74750;BMP280;63269;53.330;-6.288;2023-09-07T12:41:19;101440.56;;;24.78
74750;BMP280;63269;53.330;-6.288;2023-09-07T12:43:46;101443.25;;;24.78
74750;BMP280;63269;53.330;-6.288;2023-09-07T12:46:12;101449.34;;;24.78
74750;BMP280;63269;53.330;-6.288;2023-09-07T12:48:38;101442.47;;;24.77
74750;BMP280;63269;53.330;-6.288;2023-09-07T12:51:04;101441.28;;;24.78
74750;BMP280;63269;53.330;-6.288;2023-09-07T12:53:29;101436.66;;;24.79
74750;BMP280;63269;53.330;-6.288;2023-09-07T12:55:55;101436.66;;;24.79
74750;BMP280;63269;53.330;-6.288;2023-09-07T12:58:21;101435.19;;;24.78
74750;BMP280;63269;53.330;-6.288;2023-09-07T13:00:46;101429.38;;;24.79
74750;BMP280;63269;53.330;-6.288;2023-09-07T13:03:16;101429.38;;;24.79
74750;BMP280;63269;53.330;-6.288;2023-09-07T13:05:43;101429.38;;;24.79
74750;BMP280;63269;53.330;-6.288;2023-09-07T13:08:09;101429.38;;;24.79
74750;BMP280;63269;53.330;-6.288;2023-09-07T13:10:35;101432.06;;;24.79
74750;BMP280;63269;53.330;-6.288;2023-09-07T13:13:00;101432.06;;;24.79
74750;BMP280;63269;53.330;-6.288;2023-09-07T13:15:26;101417.13;;;24.78
74750;BMP280;63269;53.330;-6.288;2023-09-07T13:17:52;101417.88;;;24.79
74750;BMP280;63269;53.330;-6.288;2023-09-07T13:20:17;101415.97;;;24.79
74750;BMP280;63269;53.330;-6.288;2023-09-07T13:22:45;101415.19;;;24.79
74750;BMP280;63269;53.330;-6.288;2023-09-07T13:25:12;101420.56;;;24.79
74750;BMP280;63269;53.330;-6.288;2023-09-07T13:27:37;101417.13;;;24.78
74750;BMP280;63269;53.330;-6.288;2023-09-07T13:30:04;101414.44;;;24.78
74750;BMP280;63269;53.330;-6.288;2023-09-07T13:32:31;101418.63;;;24.79
74750;BMP280;63269;53.330;-6.288;2023-09-07T13:34:58;101420.56;;;24.79
74750;BMP280;63269;53.330;-6.288;2023-09-07T13:37:23;101416.69;;;24.80
74750;BMP280;63269;53.330;-6.288;2023-09-07T13:39:49;101426.25;;;24.81
74750;BMP280;63269;53.330;-6.288;2023-09-07T13:42:14;101429.69;;;24.81
74750;BMP280;63269;53.330;-6.288;2023-09-07T13:44:40;101430.84;;;24.80
74750;BMP280;63269;53.330;-6.288;2023-09-07T13:47:06;101422.06;;;24.80